createdAt,value
2022-11-14T00:00:33.637Z,2.90
2022-11-14T00:03:18.874Z,2.99
2022-11-14T00:06:08.336Z,3.01
2022-11-14T00:08:53.628Z,3.02
2022-11-14T00:11:39.021Z,2.99
2022-11-14T00:14:23.975Z,2.87
2022-11-14T00:17:09.002Z,2.85
2022-11-14T00:19:54.257Z,2.81
2022-11-14T00:22:39.656Z,2.79
2022-11-14T00:25:24.793Z,2.78
2022-11-14T00:28:09.877Z,2.75
2022-11-14T00:30:55.160Z,2.69
2022-11-14T00:33:40.074Z,2.70
2022-11-14T00:36:25.191Z,2.71
2022-11-14T00:39:13.217Z,2.74
2022-11-14T00:41:58.134Z,2.80
2022-11-14T00:44:43.543Z,2.79
2022-11-14T00:47:28.650Z,2.67
2022-11-14T00:50:14.714Z,2.62
2022-11-14T00:53:00.223Z,2.64
2022-11-14T00:55:45.309Z,2.66
2022-11-14T00:58:31.013Z,2.57
2022-11-14T01:01:16.931Z,2.52
2022-11-14T01:04:02.702Z,2.55
2022-11-14T01:06:48.211Z,2.52
2022-11-14T01:09:33.606Z,2.63
2022-11-14T01:12:19.235Z,2.54
2022-11-14T01:15:04.857Z,2.52
2022-11-14T01:17:49.924Z,2.43
2022-11-14T01:20:35.024Z,2.42
2022-11-14T01:23:20.482Z,2.38
2022-11-14T01:26:10.970Z,2.34
2022-11-14T01:28:56.447Z,2.41
2022-11-14T01:31:41.597Z,2.48
2022-11-14T01:34:26.748Z,2.45
2022-11-14T01:37:12.057Z,2.49
2022-11-14T01:39:57.145Z,2.51
2022-11-14T01:42:42.458Z,2.49
2022-11-14T01:45:45.869Z,2.42
2022-11-14T01:48:43.562Z,2.38
2022-11-14T01:51:36.263Z,2.40
2022-11-14T01:54:25.626Z,2.49
2022-11-14T01:57:11.783Z,2.45
2022-11-14T02:00:01.053Z,2.46
2022-11-14T02:02:46.726Z,2.46
2022-11-14T02:05:32.079Z,2.44
2022-11-14T02:08:17.995Z,2.37
2022-11-14T02:11:03.049Z,2.32
2022-11-14T02:13:48.438Z,2.28
2022-11-14T02:16:34.357Z,2.34
2022-11-14T02:19:19.769Z,2.40
2022-11-14T02:22:05.217Z,2.32
2022-11-14T02:24:50.420Z,2.20
2022-11-14T02:27:36.673Z,2.16
2022-11-14T02:30:23.362Z,2.23
2022-11-14T02:33:10.870Z,2.16
2022-11-14T02:35:56.527Z,2.02
2022-11-14T02:38:41.522Z,2.03
2022-11-14T02:41:27.101Z,1.99
2022-11-14T02:44:12.518Z,2.01
2022-11-14T02:46:58.032Z,2.11
2022-11-14T02:49:43.310Z,2.20
2022-11-14T02:52:28.799Z,2.22
2022-11-14T02:55:13.843Z,2.20
2022-11-14T02:57:59.295Z,2.16
2022-11-14T03:01:13.570Z,2.19
2022-11-14T03:03:49.501Z,2.14
2022-11-14T03:06:34.743Z,2.17
2022-11-14T03:09:20.338Z,2.21
2022-11-14T03:12:06.168Z,2.15
2022-11-14T03:14:51.519Z,2.11
2022-11-14T03:17:36.616Z,2.20
2022-11-14T03:20:22.098Z,2.09
2022-11-14T03:23:07.263Z,1.92
2022-11-14T03:25:52.247Z,1.89
2022-11-14T03:28:38.271Z,1.92
2022-11-14T03:31:23.290Z,1.99
2022-11-14T03:34:09.770Z,1.87
2022-11-14T03:36:54.786Z,1.89
2022-11-14T03:39:40.217Z,1.92
2022-11-14T03:42:25.320Z,1.96
2022-11-14T03:45:10.834Z,1.92
2022-11-14T03:47:55.774Z,1.97
2022-11-14T03:50:42.055Z,1.88
2022-11-14T03:53:28.329Z,1.83
2022-11-14T03:56:13.690Z,1.80
2022-11-14T03:58:58.851Z,1.73
2022-11-14T04:01:43.980Z,1.72
2022-11-14T04:04:29.163Z,1.64
2022-11-14T04:07:14.427Z,1.71
2022-11-14T04:09:59.911Z,1.74
2022-11-14T04:12:52.603Z,1.70
2022-11-14T04:15:37.899Z,1.71
2022-11-14T04:18:24.138Z,1.74
2022-11-14T04:21:09.370Z,1.80
2022-11-14T04:23:54.739Z,1.80
2022-11-14T04:26:39.979Z,1.74
2022-11-14T04:29:25.036Z,1.76
2022-11-14T04:32:09.904Z,1.73
2022-11-14T04:34:55.082Z,1.72
2022-11-14T04:37:40.387Z,1.77
2022-11-14T04:40:25.802Z,1.76
2022-11-14T04:43:10.918Z,1.78
2022-11-14T04:45:55.756Z,1.69
2022-11-14T04:48:40.932Z,1.69
2022-11-14T04:51:25.927Z,1.74
2022-11-14T04:54:11.012Z,1.60
2022-11-14T04:56:56.480Z,1.57
2022-11-14T04:59:41.742Z,1.58
2022-11-14T05:02:26.891Z,1.60
2022-11-14T05:05:11.984Z,1.68
2022-11-14T05:07:57.145Z,1.68
2022-11-14T05:10:46.089Z,1.67
2022-11-14T05:13:31.306Z,1.75
2022-11-14T05:16:16.824Z,1.83
2022-11-14T05:19:02.144Z,1.85
2022-11-14T05:21:47.256Z,1.89
2022-11-14T05:24:32.467Z,1.96
2022-11-14T05:27:17.852Z,1.97
2022-11-14T05:30:03.396Z,1.89
2022-11-14T05:32:48.407Z,1.76
2022-11-14T05:35:33.612Z,1.70
2022-11-14T05:38:18.784Z,1.77
2022-11-14T05:41:09.914Z,1.80
2022-11-14T05:43:55.318Z,1.89
2022-11-14T05:46:40.775Z,1.98
2022-11-14T05:49:25.935Z,2.07
2022-11-14T05:52:11.788Z,2.15
2022-11-14T05:54:57.112Z,2.20
2022-11-14T05:57:42.354Z,2.26
2022-11-14T06:00:27.940Z,2.19
2022-11-14T06:03:15.045Z,2.14
2022-11-14T06:06:02.328Z,2.18
2022-11-14T06:08:48.503Z,2.29
2022-11-14T06:11:34.388Z,2.41
2022-11-14T06:14:19.509Z,2.53
2022-11-14T06:17:04.858Z,2.67
2022-11-14T06:19:49.892Z,2.72
2022-11-14T06:22:35.979Z,2.80
2022-11-14T06:25:21.652Z,2.83
2022-11-14T06:28:07.168Z,2.90
2022-11-14T06:30:52.152Z,3.01
2022-11-14T06:33:37.583Z,3.11
2022-11-14T06:36:23.204Z,3.17
2022-11-14T06:39:08.596Z,3.27
2022-11-14T06:41:53.935Z,3.28
2022-11-14T06:44:39.108Z,3.24
2022-11-14T06:47:24.602Z,3.27
2022-11-14T06:50:09.738Z,3.36
2022-11-14T06:52:58.609Z,3.48
2022-11-14T06:55:43.939Z,3.58
2022-11-14T06:58:31.584Z,3.67
2022-11-14T07:01:22.491Z,3.78
2022-11-14T07:04:07.632Z,3.89
2022-11-14T07:06:53.074Z,3.99
2022-11-14T07:09:38.782Z,4.08
2022-11-14T07:12:23.952Z,4.16
2022-11-14T07:15:09.555Z,4.26
2022-11-14T07:17:54.733Z,4.39
2022-11-14T07:20:40.076Z,4.56
2022-11-14T07:23:25.580Z,4.85
2022-11-14T07:26:12.004Z,5.16
2022-11-14T07:29:02.199Z,5.31
2022-11-14T07:31:48.127Z,5.41
2022-11-14T07:34:33.259Z,5.48
2022-11-14T07:37:18.846Z,5.68
2022-11-14T07:40:04.240Z,5.93
2022-11-14T07:42:49.402Z,6.04
2022-11-14T07:45:34.534Z,6.14
2022-11-14T07:48:21.945Z,6.24
2022-11-14T07:51:10.041Z,6.35
2022-11-14T07:53:55.793Z,6.48
2022-11-14T07:56:41.375Z,6.70
2022-11-14T07:59:26.645Z,6.91
2022-11-14T08:02:15.427Z,7.18
2022-11-14T08:05:01.363Z,7.27
2022-11-14T08:07:46.734Z,7.16
2022-11-14T08:10:34.084Z,7.15
2022-11-14T08:13:34.852Z,7.15
2022-11-14T08:16:20.218Z,7.05
2022-11-14T08:19:05.549Z,7.13
2022-11-14T08:21:51.077Z,7.20
2022-11-14T08:24:36.067Z,7.32
2022-11-14T08:27:21.127Z,7.39
2022-11-14T08:30:07.089Z,7.57
2022-11-14T08:32:52.489Z,7.89
2022-11-14T08:35:37.691Z,8.35
2022-11-14T08:38:23.125Z,8.60
2022-11-14T08:41:08.116Z,9.10
2022-11-14T08:43:54.375Z,9.36
2022-11-14T08:46:39.673Z,9.67
2022-11-14T08:49:24.893Z,9.73
2022-11-14T08:52:13.784Z,9.91
2022-11-14T08:55:02.148Z,10.22
2022-11-14T08:57:49.569Z,10.38
2022-11-14T09:00:35.397Z,10.61
2022-11-14T09:03:21.049Z,10.57
2022-11-14T09:06:06.451Z,10.65
2022-11-14T09:08:51.862Z,10.70
2022-11-14T09:11:37.127Z,10.81
2022-11-14T09:14:22.372Z,10.87
2022-11-14T09:17:07.434Z,11.10
2022-11-14T09:19:53.192Z,11.73
2022-11-14T09:22:38.936Z,13.01
2022-11-14T09:25:24.282Z,14.06
2022-11-14T09:28:10.210Z,14.92
2022-11-14T09:31:03.417Z,15.69
2022-11-14T09:33:48.920Z,16.24
2022-11-14T09:36:34.026Z,16.70
2022-11-14T09:39:19.595Z,17.28
2022-11-14T09:42:29.020Z,17.64
2022-11-14T09:45:17.042Z,18.09
2022-11-14T09:48:07.474Z,18.45
2022-11-14T09:51:05.009Z,18.54
2022-11-14T09:54:08.799Z,18.89
2022-11-14T09:56:54.462Z,18.78
2022-11-14T09:59:39.779Z,19.09
2022-11-14T10:02:27.722Z,19.20
2022-11-14T10:05:15.858Z,19.36
2022-11-14T10:08:26.306Z,19.97
2022-11-14T10:11:48.530Z,20.73
2022-11-14T10:15:15.807Z,21.09
2022-11-14T10:18:06.897Z,21.17
2022-11-14T10:20:55.214Z,21.44
2022-11-14T10:24:18.313Z,21.91
2022-11-14T10:27:07.487Z,21.82
2022-11-14T10:30:09.610Z,21.57
2022-11-14T10:33:16.996Z,20.91
2022-11-14T10:36:40.980Z,20.90
2022-11-14T10:39:29.334Z,20.70
2022-11-14T10:42:20.802Z,20.93
2022-11-14T10:45:23.931Z,21.13
2022-11-14T10:48:20.338Z,21.20
2022-11-14T10:51:19.061Z,20.82
2022-11-14T10:54:10.302Z,20.94
2022-11-14T10:56:55.858Z,21.06
2022-11-14T10:59:43.101Z,21.45
2022-11-14T11:02:47.689Z,21.59
2022-11-14T11:05:45.756Z,21.50
2022-11-14T11:08:49.862Z,21.49
2022-11-14T11:11:38.964Z,21.60
2022-11-14T11:14:24.954Z,21.47
2022-11-14T11:17:19.794Z,21.56
2022-11-14T11:20:41.295Z,21.51
2022-11-14T11:23:27.917Z,21.51
2022-11-14T11:26:24.601Z,21.35
2022-11-14T11:29:09.940Z,21.22
2022-11-14T11:31:58.006Z,21.06
2022-11-14T11:34:43.518Z,21.14
2022-11-14T11:37:40.709Z,21.26
2022-11-14T11:40:28.073Z,21.01
2022-11-14T11:43:39.526Z,21.20
2022-11-14T11:46:50.616Z,21.03
2022-11-14T11:49:53.395Z,20.78
2022-11-14T11:52:55.036Z,20.80
2022-11-14T11:55:53.768Z,20.69
2022-11-14T11:58:49.121Z,20.61
2022-11-14T12:01:34.544Z,20.72
2022-11-14T12:04:19.955Z,20.57
2022-11-14T12:07:12.842Z,20.42
2022-11-14T12:10:15.216Z,20.39
2022-11-14T12:13:41.388Z,20.44
2022-11-14T12:16:39.997Z,20.47
2022-11-14T12:19:27.914Z,20.34
2022-11-14T12:22:50.517Z,20.42
2022-11-14T12:25:44.393Z,20.43
2022-11-14T12:28:45.977Z,20.50
2022-11-14T12:31:34.326Z,20.31
2022-11-14T12:34:37.568Z,20.30
2022-11-14T12:37:37.311Z,20.19
2022-11-14T12:40:29.230Z,20.15
2022-11-14T12:43:43.170Z,20.47
2022-11-14T12:46:29.367Z,20.98
2022-11-14T12:49:52.757Z,21.24
2022-11-14T12:52:41.035Z,21.43
2022-11-14T12:55:26.517Z,21.34
2022-11-14T12:58:19.250Z,21.10
2022-11-14T13:01:23.481Z,20.79
2022-11-14T13:04:17.954Z,20.49
2022-11-14T13:07:32.793Z,20.41
2022-11-14T13:10:45.638Z,20.04
2022-11-14T13:13:50.266Z,19.89
2022-11-14T13:16:53.804Z,19.77
2022-11-14T13:20:05.450Z,19.58
2022-11-14T13:22:50.925Z,19.25
2022-11-14T13:25:36.230Z,19.06
2022-11-14T13:28:49.038Z,18.96
2022-11-14T13:31:37.447Z,18.75
2022-11-14T13:35:04.254Z,18.50
2022-11-14T13:38:27.717Z,18.37
2022-11-14T13:41:24.439Z,18.09
2022-11-14T13:44:33.312Z,17.80
2022-11-14T13:47:33.335Z,17.52
2022-11-14T13:50:25.328Z,17.16
2022-11-14T13:53:16.555Z,16.77
2022-11-14T13:56:07.524Z,16.41
2022-11-14T13:58:56.541Z,16.20
2022-11-14T14:01:51.207Z,15.76
2022-11-14T14:05:00.604Z,15.20
2022-11-14T14:07:48.596Z,15.13
2022-11-14T14:11:00.198Z,14.97
2022-11-14T14:14:11.189Z,14.66
2022-11-14T14:17:02.736Z,14.04
2022-11-14T14:20:10.034Z,13.56
2022-11-14T14:23:01.466Z,13.16
2022-11-14T14:26:07.878Z,12.70
2022-11-14T14:29:05.779Z,12.58
2022-11-14T14:31:51.964Z,12.37
2022-11-14T14:34:37.522Z,12.03
2022-11-14T14:37:28.078Z,11.77
2022-11-14T14:40:26.495Z,11.38
2022-11-14T14:43:20.925Z,11.03
2022-11-14T14:46:06.559Z,10.67
2022-11-14T14:48:51.922Z,10.40
2022-11-14T14:51:38.911Z,10.04
2022-11-14T14:54:26.795Z,9.68
2022-11-14T14:57:17.237Z,9.52
2022-11-14T15:00:07.308Z,9.43
2022-11-14T15:02:55.374Z,9.33
2022-11-14T15:05:40.831Z,9.25
2022-11-14T15:08:27.059Z,9.12
2022-11-14T15:11:14.438Z,8.99
2022-11-14T15:14:01.000Z,8.82
2022-11-14T15:16:50.007Z,8.75
2022-11-14T15:19:41.262Z,8.62
2022-11-14T15:22:29.247Z,8.53
2022-11-14T15:25:14.742Z,8.35
2022-11-14T15:28:00.750Z,8.16
2022-11-14T15:30:59.173Z,8.01
2022-11-14T15:33:44.706Z,7.76
2022-11-14T15:36:30.105Z,7.60
2022-11-14T15:39:27.541Z,7.34
2022-11-14T15:42:15.192Z,7.18
2022-11-14T15:45:00.487Z,7.16
2022-11-14T15:47:46.638Z,7.05
2022-11-14T15:50:33.594Z,6.94
2022-11-14T15:53:25.870Z,6.82
2022-11-14T15:56:13.069Z,6.63
2022-11-14T15:58:59.207Z,6.56
2022-11-14T16:01:46.145Z,6.43
2022-11-14T16:04:34.307Z,6.34
2022-11-14T16:07:20.506Z,6.22
2022-11-14T16:10:17.299Z,6.08
2022-11-14T16:13:02.975Z,6.10
2022-11-14T16:15:48.330Z,6.03
2022-11-14T16:18:34.076Z,5.91
2022-11-14T16:21:19.630Z,5.71
2022-11-14T16:24:06.105Z,5.74
2022-11-14T16:26:51.464Z,5.73
2022-11-14T16:29:36.470Z,5.71
2022-11-14T16:32:23.407Z,5.66
2022-11-14T16:35:23.400Z,5.76
2022-11-14T16:38:10.795Z,5.62
2022-11-14T16:40:55.753Z,5.61
2022-11-14T16:43:41.160Z,5.62
2022-11-14T16:46:26.465Z,5.63
2022-11-14T16:49:14.106Z,5.66
2022-11-14T16:52:03.115Z,5.57
2022-11-14T16:54:51.243Z,5.57
2022-11-14T16:57:37.619Z,5.55
2022-11-14T17:00:22.979Z,5.55
2022-11-14T17:03:08.079Z,5.57
2022-11-14T17:05:53.477Z,5.54
2022-11-14T17:08:38.878Z,5.45
2022-11-14T17:11:25.113Z,5.45
2022-11-14T17:14:11.080Z,5.44
2022-11-14T17:16:56.284Z,5.42
2022-11-14T17:19:46.195Z,5.40
2022-11-14T17:22:31.975Z,5.37
2022-11-14T17:25:17.586Z,5.30
2022-11-14T17:28:03.053Z,5.24
2022-11-14T17:30:48.312Z,5.27
2022-11-14T17:33:33.776Z,5.25
2022-11-14T17:36:19.536Z,5.12
2022-11-14T17:39:04.567Z,5.11
2022-11-14T17:41:49.767Z,5.04
2022-11-14T17:44:34.796Z,5.00
2022-11-14T17:47:20.398Z,4.97
2022-11-14T17:50:05.850Z,4.87
2022-11-14T17:52:51.168Z,4.82
2022-11-14T17:55:36.610Z,4.75
2022-11-14T17:58:21.766Z,4.74
2022-11-14T18:01:11.305Z,4.72
2022-11-14T18:04:00.494Z,4.71
2022-11-14T18:06:48.438Z,4.69
2022-11-14T18:09:33.382Z,4.62
2022-11-14T18:12:18.633Z,4.58
2022-11-14T18:15:04.543Z,4.58
2022-11-14T18:17:50.011Z,4.55
2022-11-14T18:20:37.876Z,4.53
2022-11-14T18:23:22.898Z,4.41
2022-11-14T18:26:09.900Z,4.39
2022-11-14T18:29:00.837Z,4.40
2022-11-14T18:31:46.387Z,4.41
2022-11-14T18:34:32.084Z,4.32
2022-11-14T18:37:18.134Z,4.37
2022-11-14T18:40:04.189Z,4.47
2022-11-14T18:42:49.223Z,4.47
2022-11-14T18:45:34.966Z,4.42
2022-11-14T18:48:20.342Z,4.32
2022-11-14T18:51:12.951Z,4.27
2022-11-14T18:53:59.390Z,4.29
2022-11-14T18:56:45.346Z,4.26
2022-11-14T18:59:30.595Z,4.25
2022-11-14T19:02:16.179Z,4.23
2022-11-14T19:05:02.203Z,4.30
2022-11-14T19:07:47.848Z,4.21
2022-11-14T19:10:32.988Z,4.20
2022-11-14T19:13:18.232Z,4.22
2022-11-14T19:16:04.859Z,4.22
2022-11-14T19:18:50.348Z,4.23
2022-11-14T19:21:36.179Z,4.27
2022-11-14T19:24:21.965Z,4.28
2022-11-14T19:27:07.425Z,4.25
2022-11-14T19:29:52.893Z,4.26
2022-11-14T19:32:38.007Z,4.19
2022-11-14T19:35:23.325Z,4.23
2022-11-14T19:38:08.839Z,4.23
2022-11-14T19:40:53.816Z,4.25
2022-11-14T19:43:40.035Z,4.25
2022-11-14T19:46:27.233Z,4.20
2022-11-14T19:49:12.808Z,4.19
2022-11-14T19:51:58.309Z,4.09
2022-11-14T19:54:43.866Z,3.98
2022-11-14T19:57:31.441Z,3.97
2022-11-14T20:00:17.638Z,3.92
2022-11-14T20:03:02.726Z,3.93
2022-11-14T20:05:48.108Z,3.86
2022-11-14T20:08:33.199Z,3.88
2022-11-14T20:11:18.662Z,3.93
2022-11-14T20:14:05.634Z,3.84
2022-11-14T20:16:51.065Z,3.86
2022-11-14T20:19:36.536Z,3.79
2022-11-14T20:22:21.599Z,3.78
2022-11-14T20:25:07.418Z,3.81
2022-11-14T20:27:52.568Z,3.85
2022-11-14T20:30:41.164Z,3.83
2022-11-14T20:33:26.265Z,3.78
2022-11-14T20:36:16.885Z,3.70
2022-11-14T20:39:02.237Z,3.65
2022-11-14T20:41:47.636Z,3.57
2022-11-14T20:44:32.811Z,3.55
2022-11-14T20:47:18.493Z,3.48
2022-11-14T20:50:03.869Z,3.52
2022-11-14T20:52:49.180Z,3.50
2022-11-14T20:55:34.343Z,3.41
2022-11-14T20:58:20.492Z,3.37
2022-11-14T21:01:05.923Z,3.24
2022-11-14T21:03:51.231Z,3.18
2022-11-14T21:06:36.307Z,3.16
2022-11-14T21:09:21.674Z,3.16
2022-11-14T21:12:06.824Z,3.21
2022-11-14T21:14:52.018Z,3.17
2022-11-14T21:17:37.129Z,3.15
2022-11-14T21:20:22.580Z,3.18
2022-11-14T21:23:07.730Z,3.12
2022-11-14T21:25:52.904Z,3.09
2022-11-14T21:28:40.634Z,2.98
2022-11-14T21:31:33.799Z,2.92
2022-11-14T21:34:19.099Z,3.02
2022-11-14T21:37:04.529Z,3.03
2022-11-14T21:39:49.727Z,3.05
2022-11-14T21:42:34.654Z,3.07
2022-11-14T21:45:19.893Z,2.98
2022-11-14T21:48:04.857Z,2.93
2022-11-14T21:50:50.028Z,2.92
2022-11-14T21:53:35.954Z,2.90
2022-11-14T21:56:22.303Z,2.84
2022-11-14T21:59:16.873Z,2.87
2022-11-14T22:02:20.662Z,2.86
2022-11-14T22:05:06.498Z,2.70
2022-11-14T22:07:51.577Z,2.70
2022-11-14T22:10:36.950Z,2.75
2022-11-14T22:13:21.934Z,2.70
2022-11-14T22:16:08.136Z,2.69
2022-11-14T22:18:54.227Z,2.70
2022-11-14T22:21:39.335Z,2.67
2022-11-14T22:24:24.790Z,2.67
2022-11-14T22:27:09.928Z,2.64
2022-11-14T22:29:55.151Z,2.56
2022-11-14T22:32:40.550Z,2.61
2022-11-14T22:35:25.546Z,2.61
2022-11-14T22:38:10.656Z,2.62
2022-11-14T22:40:56.942Z,2.51
2022-11-14T22:43:42.907Z,2.57
2022-11-14T22:46:28.481Z,2.53
2022-11-14T22:49:18.363Z,2.59
2022-11-14T22:52:06.027Z,2.61
2022-11-14T22:54:51.330Z,2.61
2022-11-14T22:57:36.272Z,2.61
2022-11-14T23:00:21.983Z,2.56
2022-11-14T23:03:07.424Z,2.57
2022-11-14T23:05:52.889Z,2.57
2022-11-14T23:08:38.530Z,2.59
2022-11-14T23:11:25.858Z,2.60
2022-11-14T23:14:12.840Z,2.57
2022-11-14T23:16:57.895Z,2.51
2022-11-14T23:19:43.059Z,2.50
2022-11-14T23:22:28.236Z,2.48
2022-11-14T23:25:13.328Z,2.46
2022-11-14T23:27:58.354Z,2.44
2022-11-14T23:30:43.505Z,2.35
2022-11-14T23:33:28.739Z,2.29
2022-11-14T23:36:14.873Z,2.35
2022-11-14T23:39:00.176Z,2.41
2022-11-14T23:41:45.398Z,2.41
2022-11-14T23:44:30.807Z,2.35
2022-11-14T23:47:15.892Z,2.34
2022-11-14T23:50:01.085Z,2.37
2022-11-14T23:52:46.625Z,2.36
2022-11-14T23:55:31.697Z,2.31
2022-11-14T23:58:16.624Z,2.28
